sensor_id;sensor_type;location;lat;lon;timestamp;temperature;humidity
8372;DHT22;4223;48.724;8.982;2022-12-29T00:00:19;6.70;15.40
8372;DHT22;4223;48.724;8.982;2022-12-29T00:02:46;6.80;15.80
8372;DHT22;4223;48.724;8.982;2022-12-29T00:05:12;6.80;16.00
8372;DHT22;4223;48.724;8.982;2022-12-29T00:07:41;6.80;13.30
8372;DHT22;4223;48.724;8.982;2022-12-29T00:10:08;6.90;3.60
8372;DHT22;4223;48.724;8.982;2022-12-29T00:12:35;6.90;1.00
8372;DHT22;4223;48.724;8.982;2022-12-29T00:15:19;7.00;1.00
8372;DHT22;4223;48.724;8.982;2022-12-29T00:18:04;7.10;1.00
8372;DHT22;4223;48.724;8.982;2022-12-29T00:20:33;7.20;1.00
8372;DHT22;4223;48.724;8.982;2022-12-29T00:23:22;7.40;1.00
8372;DHT22;4223;48.724;8.982;2022-12-29T00:26:12;7.50;1.00
8372;DHT22;4223;48.724;8.982;2022-12-29T00:28:57;7.70;1.00
8372;DHT22;4223;48.724;8.982;2022-12-29T00:31:41;7.80;1.00
8372;DHT22;4223;48.724;8.982;2022-12-29T00:34:25;7.80;1.00
8372;DHT22;4223;48.724;8.982;2022-12-29T00:37:09;7.90;1.00
8372;DHT22;4223;48.724;8.982;2022-12-29T00:39:38;8.00;1.00
8372;DHT22;4223;48.724;8.982;2022-12-29T00:42:22;8.00;1.00
8372;DHT22;4223;48.724;8.982;2022-12-29T00:45:07;8.10;1.00
8372;DHT22;4223;48.724;8.982;2022-12-29T00:47:33;8.20;1.00
8372;DHT22;4223;48.724;8.982;2022-12-29T00:50:00;8.30;1.00
8372;DHT22;4223;48.724;8.982;2022-12-29T00:52:26;8.40;1.00
8372;DHT22;4223;48.724;8.982;2022-12-29T00:54:54;8.50;1.00
8372;DHT22;4223;48.724;8.982;2022-12-29T00:57:21;8.50;1.00
8372;DHT22;4223;48.724;8.982;2022-12-29T00:59:48;8.50;1.00
8372;DHT22;4223;48.724;8.982;2022-12-29T01:02:15;8.50;1.00
8372;DHT22;4223;48.724;8.982;2022-12-29T01:04:41;8.50;1.00
8372;DHT22;4223;48.724;8.982;2022-12-29T01:07:08;8.60;1.00
8372;DHT22;4223;48.724;8.982;2022-12-29T01:09:35;8.50;1.00
8372;DHT22;4223;48.724;8.982;2022-12-29T01:12:21;8.40;1.00
8372;DHT22;4223;48.724;8.982;2022-12-29T01:15:07;8.40;1.00
8372;DHT22;4223;48.724;8.982;2022-12-29T01:17:34;8.40;1.00
8372;DHT22;4223;48.724;8.982;2022-12-29T01:20:01;8.40;1.00
8372;DHT22;4223;48.724;8.982;2022-12-29T01:22:28;8.40;1.00
8372;DHT22;4223;48.724;8.982;2022-12-29T01:24:55;8.30;1.00
8372;DHT22;4223;48.724;8.982;2022-12-29T01:27:23;8.30;1.00
8372;DHT22;4223;48.724;8.982;2022-12-29T01:29:50;8.30;1.00
8372;DHT22;4223;48.724;8.982;2022-12-29T01:32:17;8.30;1.00
8372;DHT22;4223;48.724;8.982;2022-12-29T01:34:44;8.20;1.00
8372;DHT22;4223;48.724;8.982;2022-12-29T01:37:11;8.20;1.00
8372;DHT22;4223;48.724;8.982;2022-12-29T01:39:37;8.20;1.00
8372;DHT22;4223;48.724;8.982;2022-12-29T01:42:05;8.20;1.00
8372;DHT22;4223;48.724;8.982;2022-12-29T01:44:51;8.30;1.00
8372;DHT22;4223;48.724;8.982;2022-12-29T01:47:25;8.30;1.00
8372;DHT22;4223;48.724;8.982;2022-12-29T01:49:55;8.30;1.00
8372;DHT22;4223;48.724;8.982;2022-12-29T01:52:24;8.30;1.00
8372;DHT22;4223;48.724;8.982;2022-12-29T01:54:55;8.30;1.00
8372;DHT22;4223;48.724;8.982;2022-12-29T01:57:25;8.30;1.00
8372;DHT22;4223;48.724;8.982;2022-12-29T01:59:58;8.20;1.00
8372;DHT22;4223;48.724;8.982;2022-12-29T02:02:27;8.20;1.00
8372;DHT22;4223;48.724;8.982;2022-12-29T02:04:56;8.20;1.00
8372;DHT22;4223;48.724;8.982;2022-12-29T02:07:26;8.20;1.00
8372;DHT22;4223;48.724;8.982;2022-12-29T02:09:55;8.20;1.00
8372;DHT22;4223;48.724;8.982;2022-12-29T02:12:23;8.20;1.00
8372;DHT22;4223;48.724;8.982;2022-12-29T02:14:55;8.30;1.00
8372;DHT22;4223;48.724;8.982;2022-12-29T02:17:38;8.30;1.00
8372;DHT22;4223;48.724;8.982;2022-12-29T02:23:28;8.50;1.00
8372;DHT22;4223;48.724;8.982;2022-12-29T02:29:08;8.50;1.00
8372;DHT22;4223;48.724;8.982;2022-12-29T02:31:46;8.40;1.00
8372;DHT22;4223;48.724;8.982;2022-12-29T02:34:24;8.40;1.00
8372;DHT22;4223;48.724;8.982;2022-12-29T02:37:00;8.50;1.00
8372;DHT22;4223;48.724;8.982;2022-12-29T02:39:34;8.70;1.00
8372;DHT22;4223;48.724;8.982;2022-12-29T02:42:10;8.80;1.00
8372;DHT22;4223;48.724;8.982;2022-12-29T02:44:45;8.90;1.00
8372;DHT22;4223;48.724;8.982;2022-12-29T02:47:22;9.00;1.00
8372;DHT22;4223;48.724;8.982;2022-12-29T02:49:59;9.20;99.90
8372;DHT22;4223;48.724;8.982;2022-12-29T02:52:31;9.20;99.90
8372;DHT22;4223;48.724;8.982;2022-12-29T02:55:00;9.20;99.90
8372;DHT22;4223;48.724;8.982;2022-12-29T02:57:31;9.20;99.90
8372;DHT22;4223;48.724;8.982;2022-12-29T03:00:03;9.20;99.90
8372;DHT22;4223;48.724;8.982;2022-12-29T03:02:39;9.20;99.90
8372;DHT22;4223;48.724;8.982;2022-12-29T03:05:23;9.20;99.90
8372;DHT22;4223;48.724;8.982;2022-12-29T03:07:59;9.20;99.90
8372;DHT22;4223;48.724;8.982;2022-12-29T03:10:36;9.20;1.00
8372;DHT22;4223;48.724;8.982;2022-12-29T03:13:10;9.10;1.00
8372;DHT22;4223;48.724;8.982;2022-12-29T03:16:02;9.10;1.00
8372;DHT22;4223;48.724;8.982;2022-12-29T03:18:39;9.10;1.00
8372;DHT22;4223;48.724;8.982;2022-12-29T03:21:11;9.10;1.00
8372;DHT22;4223;48.724;8.982;2022-12-29T03:23:41;9.10;1.00
8372;DHT22;4223;48.724;8.982;2022-12-29T03:26:10;9.10;1.00
8372;DHT22;4223;48.724;8.982;2022-12-29T03:28:41;9.10;1.00
8372;DHT22;4223;48.724;8.982;2022-12-29T03:31:12;9.10;1.00
8372;DHT22;4223;48.724;8.982;2022-12-29T03:33:41;9.10;1.00
8372;DHT22;4223;48.724;8.982;2022-12-29T03:36:12;9.00;1.00
8372;DHT22;4223;48.724;8.982;2022-12-29T03:38:44;9.00;1.00
8372;DHT22;4223;48.724;8.982;2022-12-29T03:41:22;8.90;1.00
8372;DHT22;4223;48.724;8.982;2022-12-29T03:43:50;8.90;1.00
8372;DHT22;4223;48.724;8.982;2022-12-29T03:46:17;9.00;1.00
8372;DHT22;4223;48.724;8.982;2022-12-29T03:48:45;9.00;1.00
8372;DHT22;4223;48.724;8.982;2022-12-29T03:51:12;9.00;1.00
8372;DHT22;4223;48.724;8.982;2022-12-29T03:53:39;8.90;1.00
8372;DHT22;4223;48.724;8.982;2022-12-29T03:56:06;8.90;1.00
8372;DHT22;4223;48.724;8.982;2022-12-29T03:58:33;8.90;1.00
8372;DHT22;4223;48.724;8.982;2022-12-29T04:01:02;8.90;1.00
8372;DHT22;4223;48.724;8.982;2022-12-29T04:03:29;8.80;1.00
8372;DHT22;4223;48.724;8.982;2022-12-29T04:05:59;8.90;1.00
8372;DHT22;4223;48.724;8.982;2022-12-29T04:08:26;9.00;1.00
8372;DHT22;4223;48.724;8.982;2022-12-29T04:10:53;9.00;1.00
8372;DHT22;4223;48.724;8.982;2022-12-29T04:13:20;9.00;1.00
8372;DHT22;4223;48.724;8.982;2022-12-29T04:15:47;9.00;1.00
8372;DHT22;4223;48.724;8.982;2022-12-29T04:18:14;9.10;1.00
8372;DHT22;4223;48.724;8.982;2022-12-29T04:20:41;9.20;1.00
8372;DHT22;4223;48.724;8.982;2022-12-29T04:23:27;9.30;1.00
8372;DHT22;4223;48.724;8.982;2022-12-29T04:25:54;9.30;1.00
8372;DHT22;4223;48.724;8.982;2022-12-29T04:28:21;9.40;1.00
8372;DHT22;4223;48.724;8.982;2022-12-29T04:30:47;9.50;1.00
8372;DHT22;4223;48.724;8.982;2022-12-29T04:33:14;9.60;1.00
8372;DHT22;4223;48.724;8.982;2022-12-29T04:35:42;9.70;1.00
8372;DHT22;4223;48.724;8.982;2022-12-29T04:38:09;9.70;1.00
8372;DHT22;4223;48.724;8.982;2022-12-29T04:40:38;9.60;1.00
8372;DHT22;4223;48.724;8.982;2022-12-29T04:43:05;9.60;1.00
8372;DHT22;4223;48.724;8.982;2022-12-29T04:45:32;9.60;1.00
8372;DHT22;4223;48.724;8.982;2022-12-29T04:47:59;9.60;1.00
8372;DHT22;4223;48.724;8.982;2022-12-29T04:50:26;9.70;1.00
8372;DHT22;4223;48.724;8.982;2022-12-29T04:52:53;9.70;1.00
8372;DHT22;4223;48.724;8.982;2022-12-29T04:55:19;9.70;1.00
8372;DHT22;4223;48.724;8.982;2022-12-29T04:57:47;9.80;1.00
8372;DHT22;4223;48.724;8.982;2022-12-29T05:00:14;9.80;1.00
8372;DHT22;4223;48.724;8.982;2022-12-29T05:02:41;9.90;1.00
8372;DHT22;4223;48.724;8.982;2022-12-29T05:05:09;9.90;1.00
8372;DHT22;4223;48.724;8.982;2022-12-29T05:07:35;9.90;1.00
8372;DHT22;4223;48.724;8.982;2022-12-29T05:10:03;9.80;1.00
8372;DHT22;4223;48.724;8.982;2022-12-29T05:12:30;9.80;1.00
8372;DHT22;4223;48.724;8.982;2022-12-29T05:14:59;9.90;1.00
8372;DHT22;4223;48.724;8.982;2022-12-29T05:17:27;9.80;1.00
8372;DHT22;4223;48.724;8.982;2022-12-29T05:19:54;9.80;1.00
8372;DHT22;4223;48.724;8.982;2022-12-29T05:22:21;9.80;1.00
8372;DHT22;4223;48.724;8.982;2022-12-29T05:24:48;9.80;1.00
8372;DHT22;4223;48.724;8.982;2022-12-29T05:27:14;9.80;1.00
8372;DHT22;4223;48.724;8.982;2022-12-29T05:29:41;9.90;1.00
8372;DHT22;4223;48.724;8.982;2022-12-29T05:32:09;9.90;1.00
8372;DHT22;4223;48.724;8.982;2022-12-29T05:34:36;9.90;1.00
8372;DHT22;4223;48.724;8.982;2022-12-29T05:37:04;10.00;1.00
8372;DHT22;4223;48.724;8.982;2022-12-29T05:39:30;10.00;1.00
8372;DHT22;4223;48.724;8.982;2022-12-29T05:41:57;10.00;1.00
8372;DHT22;4223;48.724;8.982;2022-12-29T05:44:24;10.00;1.00
8372;DHT22;4223;48.724;8.982;2022-12-29T05:46:51;10.00;1.00
8372;DHT22;4223;48.724;8.982;2022-12-29T05:49:19;10.00;1.00
8372;DHT22;4223;48.724;8.982;2022-12-29T05:51:46;10.00;1.00
8372;DHT22;4223;48.724;8.982;2022-12-29T05:54:13;9.90;1.00
8372;DHT22;4223;48.724;8.982;2022-12-29T05:56:40;9.90;1.00
8372;DHT22;4223;48.724;8.982;2022-12-29T05:59:06;9.90;1.00
8372;DHT22;4223;48.724;8.982;2022-12-29T06:01:33;9.90;1.00
8372;DHT22;4223;48.724;8.982;2022-12-29T06:04:00;9.90;1.00
8372;DHT22;4223;48.724;8.982;2022-12-29T06:06:28;9.90;1.00
8372;DHT22;4223;48.724;8.982;2022-12-29T06:08:55;10.00;1.00
8372;DHT22;4223;48.724;8.982;2022-12-29T06:11:22;9.90;1.00
8372;DHT22;4223;48.724;8.982;2022-12-29T06:13:49;9.90;1.00
8372;DHT22;4223;48.724;8.982;2022-12-29T06:16:15;9.90;1.00
8372;DHT22;4223;48.724;8.982;2022-12-29T06:18:42;9.90;1.00
8372;DHT22;4223;48.724;8.982;2022-12-29T06:21:09;9.90;1.00
8372;DHT22;4223;48.724;8.982;2022-12-29T06:23:37;9.90;1.00
8372;DHT22;4223;48.724;8.982;2022-12-29T06:26:04;9.90;1.00
8372;DHT22;4223;48.724;8.982;2022-12-29T06:28:31;10.00;1.00
8372;DHT22;4223;48.724;8.982;2022-12-29T06:30:58;9.90;1.00
8372;DHT22;4223;48.724;8.982;2022-12-29T06:33:25;10.00;1.00
8372;DHT22;4223;48.724;8.982;2022-12-29T06:35:51;10.00;1.00
8372;DHT22;4223;48.724;8.982;2022-12-29T06:38:18;10.10;1.00
8372;DHT22;4223;48.724;8.982;2022-12-29T06:40:46;10.10;1.00
8372;DHT22;4223;48.724;8.982;2022-12-29T06:43:13;10.20;1.00
8372;DHT22;4223;48.724;8.982;2022-12-29T06:45:40;10.10;1.00
8372;DHT22;4223;48.724;8.982;2022-12-29T06:48:07;10.10;1.00
8372;DHT22;4223;48.724;8.982;2022-12-29T06:50:34;10.10;1.00
8372;DHT22;4223;48.724;8.982;2022-12-29T06:53:01;10.00;1.00
8372;DHT22;4223;48.724;8.982;2022-12-29T06:55:28;10.00;1.00
8372;DHT22;4223;48.724;8.982;2022-12-29T06:57:57;10.00;1.00
8372;DHT22;4223;48.724;8.982;2022-12-29T07:00:25;9.90;1.00
8372;DHT22;4223;48.724;8.982;2022-12-29T07:02:54;9.80;1.00
8372;DHT22;4223;48.724;8.982;2022-12-29T07:05:21;9.70;1.00
8372;DHT22;4223;48.724;8.982;2022-12-29T07:07:48;9.60;1.00
8372;DHT22;4223;48.724;8.982;2022-12-29T07:10:15;9.60;1.00
8372;DHT22;4223;48.724;8.982;2022-12-29T07:12:42;9.50;1.00
8372;DHT22;4223;48.724;8.982;2022-12-29T07:15:10;9.50;1.00
8372;DHT22;4223;48.724;8.982;2022-12-29T07:17:38;9.50;1.00
8372;DHT22;4223;48.724;8.982;2022-12-29T07:20:06;9.50;99.90
8372;DHT22;4223;48.724;8.982;2022-12-29T07:22:33;9.40;99.90
8372;DHT22;4223;48.724;8.982;2022-12-29T07:25:00;9.40;99.90
8372;DHT22;4223;48.724;8.982;2022-12-29T07:27:28;9.30;1.00
8372;DHT22;4223;48.724;8.982;2022-12-29T07:29:55;9.20;1.00
8372;DHT22;4223;48.724;8.982;2022-12-29T07:32:23;9.20;1.00
8372;DHT22;4223;48.724;8.982;2022-12-29T07:34:50;9.20;1.00
8372;DHT22;4223;48.724;8.982;2022-12-29T07:37:17;9.20;1.00
8372;DHT22;4223;48.724;8.982;2022-12-29T07:39:44;9.10;1.00
8372;DHT22;4223;48.724;8.982;2022-12-29T07:42:11;9.10;1.00
8372;DHT22;4223;48.724;8.982;2022-12-29T07:44:37;9.10;1.00
8372;DHT22;4223;48.724;8.982;2022-12-29T07:47:07;9.10;1.00
8372;DHT22;4223;48.724;8.982;2022-12-29T07:49:36;9.10;1.00
8372;DHT22;4223;48.724;8.982;2022-12-29T07:52:03;9.10;1.00
8372;DHT22;4223;48.724;8.982;2022-12-29T07:54:30;9.10;1.00
8372;DHT22;4223;48.724;8.982;2022-12-29T07:56:57;9.10;1.00
8372;DHT22;4223;48.724;8.982;2022-12-29T07:59:25;9.10;1.00
8372;DHT22;4223;48.724;8.982;2022-12-29T08:01:52;9.10;1.00
8372;DHT22;4223;48.724;8.982;2022-12-29T08:04:19;9.20;1.00
8372;DHT22;4223;48.724;8.982;2022-12-29T08:06:47;9.20;1.00
8372;DHT22;4223;48.724;8.982;2022-12-29T08:09:14;9.20;1.00
8372;DHT22;4223;48.724;8.982;2022-12-29T08:11:41;9.20;1.00
8372;DHT22;4223;48.724;8.982;2022-12-29T08:14:08;9.20;1.00
8372;DHT22;4223;48.724;8.982;2022-12-29T08:16:35;9.20;1.00
8372;DHT22;4223;48.724;8.982;2022-12-29T08:19:02;9.20;1.00
8372;DHT22;4223;48.724;8.982;2022-12-29T08:21:30;9.30;1.00
8372;DHT22;4223;48.724;8.982;2022-12-29T08:23:59;9.30;1.00
8372;DHT22;4223;48.724;8.982;2022-12-29T08:26:26;9.40;1.00
8372;DHT22;4223;48.724;8.982;2022-12-29T08:28:52;9.40;1.00
8372;DHT22;4223;48.724;8.982;2022-12-29T08:31:19;9.40;1.00
8372;DHT22;4223;48.724;8.982;2022-12-29T08:33:46;9.40;1.00
8372;DHT22;4223;48.724;8.982;2022-12-29T08:36:13;9.30;1.00
8372;DHT22;4223;48.724;8.982;2022-12-29T08:38:41;9.30;1.00
8372;DHT22;4223;48.724;8.982;2022-12-29T08:41:09;9.40;1.00
8372;DHT22;4223;48.724;8.982;2022-12-29T08:43:36;9.50;1.00
8372;DHT22;4223;48.724;8.982;2022-12-29T08:46:03;9.50;1.00
8372;DHT22;4223;48.724;8.982;2022-12-29T08:48:29;9.60;1.00
8372;DHT22;4223;48.724;8.982;2022-12-29T08:50:56;9.70;1.00
8372;DHT22;4223;48.724;8.982;2022-12-29T08:53:23;9.60;1.00
8372;DHT22;4223;48.724;8.982;2022-12-29T08:55:55;9.70;1.00
8372;DHT22;4223;48.724;8.982;2022-12-29T08:58:24;9.70;1.00
8372;DHT22;4223;48.724;8.982;2022-12-29T09:00:52;9.70;1.00
8372;DHT22;4223;48.724;8.982;2022-12-29T09:03:19;9.90;1.00
8372;DHT22;4223;48.724;8.982;2022-12-29T09:05:48;10.00;99.90
8372;DHT22;4223;48.724;8.982;2022-12-29T09:08:15;10.20;99.90
8372;DHT22;4223;48.724;8.982;2022-12-29T09:10:42;10.50;1.00
8372;DHT22;4223;48.724;8.982;2022-12-29T09:13:09;10.60;1.00
8372;DHT22;4223;48.724;8.982;2022-12-29T09:15:37;10.60;1.00
8372;DHT22;4223;48.724;8.982;2022-12-29T09:18:04;10.70;99.90
8372;DHT22;4223;48.724;8.982;2022-12-29T09:20:31;10.80;1.00
8372;DHT22;4223;48.724;8.982;2022-12-29T09:22:58;10.90;1.00
8372;DHT22;4223;48.724;8.982;2022-12-29T09:25:25;11.30;1.00
8372;DHT22;4223;48.724;8.982;2022-12-29T09:27:52;11.50;99.90
8372;DHT22;4223;48.724;8.982;2022-12-29T09:30:21;11.70;1.00
8372;DHT22;4223;48.724;8.982;2022-12-29T09:32:50;11.60;1.00
8372;DHT22;4223;48.724;8.982;2022-12-29T09:35:17;11.70;99.90
8372;DHT22;4223;48.724;8.982;2022-12-29T09:37:44;11.70;1.00
8372;DHT22;4223;48.724;8.982;2022-12-29T09:40:26;11.70;1.00
8372;DHT22;4223;48.724;8.982;2022-12-29T09:43:09;11.80;99.90
8372;DHT22;4223;48.724;8.982;2022-12-29T09:45:42;11.80;1.00
8372;DHT22;4223;48.724;8.982;2022-12-29T09:48:15;11.80;99.90
8372;DHT22;4223;48.724;8.982;2022-12-29T09:50:45;12.00;1.00
8372;DHT22;4223;48.724;8.982;2022-12-29T09:53:17;12.10;1.00
8372;DHT22;4223;48.724;8.982;2022-12-29T09:55:49;12.00;1.00
8372;DHT22;4223;48.724;8.982;2022-12-29T09:58:21;12.00;1.00
8372;DHT22;4223;48.724;8.982;2022-12-29T10:00:54;12.00;99.90
8372;DHT22;4223;48.724;8.982;2022-12-29T10:03:24;12.10;99.90
8372;DHT22;4223;48.724;8.982;2022-12-29T10:05:57;12.20;1.00
8372;DHT22;4223;48.724;8.982;2022-12-29T10:08:33;12.40;99.90
8372;DHT22;4223;48.724;8.982;2022-12-29T10:11:11;12.30;1.00
8372;DHT22;4223;48.724;8.982;2022-12-29T10:13:46;12.30;99.90
8372;DHT22;4223;48.724;8.982;2022-12-29T10:16:23;12.20;1.00
8372;DHT22;4223;48.724;8.982;2022-12-29T10:19:12;12.10;1.00
8372;DHT22;4223;48.724;8.982;2022-12-29T10:21:55;12.10;99.90
8372;DHT22;4223;48.724;8.982;2022-12-29T10:24:26;12.10;1.00
8372;DHT22;4223;48.724;8.982;2022-12-29T10:26:55;12.10;99.90
8372;DHT22;4223;48.724;8.982;2022-12-29T10:29:26;12.40;99.90
8372;DHT22;4223;48.724;8.982;2022-12-29T10:31:59;12.50;12.70
8372;DHT22;4223;48.724;8.982;2022-12-29T10:34:29;12.40;1.00
8372;DHT22;4223;48.724;8.982;2022-12-29T10:37:02;12.40;1.00
8372;DHT22;4223;48.724;8.982;2022-12-29T10:39:32;12.50;1.00
8372;DHT22;4223;48.724;8.982;2022-12-29T10:42:07;12.90;1.00
8372;DHT22;4223;48.724;8.982;2022-12-29T10:44:36;13.20;99.90
8372;DHT22;4223;48.724;8.982;2022-12-29T10:47:05;13.60;99.90
8372;DHT22;4223;48.724;8.982;2022-12-29T10:49:39;14.10;1.00
8372;DHT22;4223;48.724;8.982;2022-12-29T10:52:07;14.40;1.00
8372;DHT22;4223;48.724;8.982;2022-12-29T10:54:39;14.70;99.90
8372;DHT22;4223;48.724;8.982;2022-12-29T10:57:13;14.70;1.00
8372;DHT22;4223;48.724;8.982;2022-12-29T10:59:43;14.90;99.90
8372;DHT22;4223;48.724;8.982;2022-12-29T11:02:34;14.40;99.90
8372;DHT22;4223;48.724;8.982;2022-12-29T11:05:10;13.80;1.00
8372;DHT22;4223;48.724;8.982;2022-12-29T11:07:40;13.30;40.00
8372;DHT22;4223;48.724;8.982;2022-12-29T11:10:18;12.80;1.00
8372;DHT22;4223;48.724;8.982;2022-12-29T11:12:56;12.60;1.00
8372;DHT22;4223;48.724;8.982;2022-12-29T11:15:24;12.50;1.00
8372;DHT22;4223;48.724;8.982;2022-12-29T11:17:52;12.40;1.00
8372;DHT22;4223;48.724;8.982;2022-12-29T11:20:28;12.20;1.00
8372;DHT22;4223;48.724;8.982;2022-12-29T11:22:55;12.10;1.00
8372;DHT22;4223;48.724;8.982;2022-12-29T11:25:23;12.00;1.00
8372;DHT22;4223;48.724;8.982;2022-12-29T11:27:56;11.90;1.00
8372;DHT22;4223;48.724;8.982;2022-12-29T11:30:24;11.80;42.60
8372;DHT22;4223;48.724;8.982;2022-12-29T11:32:52;11.70;99.90
8372;DHT22;4223;48.724;8.982;2022-12-29T11:35:31;11.70;99.90
8372;DHT22;4223;48.724;8.982;2022-12-29T11:37:58;11.50;1.00
8372;DHT22;4223;48.724;8.982;2022-12-29T11:40:26;11.60;1.00
8372;DHT22;4223;48.724;8.982;2022-12-29T11:42:55;11.80;1.00
8372;DHT22;4223;48.724;8.982;2022-12-29T11:45:25;11.80;1.00
8372;DHT22;4223;48.724;8.982;2022-12-29T11:47:54;11.60;1.00
8372;DHT22;4223;48.724;8.982;2022-12-29T11:50:26;11.50;1.00
8372;DHT22;4223;48.724;8.982;2022-12-29T11:52:59;11.30;1.00
8372;DHT22;4223;48.724;8.982;2022-12-29T11:55:27;11.30;1.00
8372;DHT22;4223;48.724;8.982;2022-12-29T11:57:57;11.20;1.00
8372;DHT22;4223;48.724;8.982;2022-12-29T12:00:28;11.00;1.00
8372;DHT22;4223;48.724;8.982;2022-12-29T12:02:58;11.10;1.00
8372;DHT22;4223;48.724;8.982;2022-12-29T12:05:35;11.00;1.00
8372;DHT22;4223;48.724;8.982;2022-12-29T12:08:09;11.00;1.00
8372;DHT22;4223;48.724;8.982;2022-12-29T12:10:43;10.90;1.00
8372;DHT22;4223;48.724;8.982;2022-12-29T12:13:24;10.90;1.00
8372;DHT22;4223;48.724;8.982;2022-12-29T12:15:56;10.90;1.00
8372;DHT22;4223;48.724;8.982;2022-12-29T12:18:33;10.90;1.00
8372;DHT22;4223;48.724;8.982;2022-12-29T12:21:10;10.80;1.00
8372;DHT22;4223;48.724;8.982;2022-12-29T12:23:50;10.80;1.00
8372;DHT22;4223;48.724;8.982;2022-12-29T12:26:21;10.80;1.00
8372;DHT22;4223;48.724;8.982;2022-12-29T12:28:57;10.80;1.00
8372;DHT22;4223;48.724;8.982;2022-12-29T12:31:43;10.80;1.00
8372;DHT22;4223;48.724;8.982;2022-12-29T12:34:16;10.90;1.00
8372;DHT22;4223;48.724;8.982;2022-12-29T12:37:08;10.80;14.50
8372;DHT22;4223;48.724;8.982;2022-12-29T12:39:43;11.00;24.00
8372;DHT22;4223;48.724;8.982;2022-12-29T12:42:25;10.90;28.20
8372;DHT22;4223;48.724;8.982;2022-12-29T12:45:02;10.80;40.10
8372;DHT22;4223;48.724;8.982;2022-12-29T12:47:48;10.90;36.50
8372;DHT22;4223;48.724;8.982;2022-12-29T12:50:38;10.90;32.40
8372;DHT22;4223;48.724;8.982;2022-12-29T12:53:38;11.10;26.20
8372;DHT22;4223;48.724;8.982;2022-12-29T12:56:27;11.40;2.50
8372;DHT22;4223;48.724;8.982;2022-12-29T12:59:09;11.60;1.00
8372;DHT22;4223;48.724;8.982;2022-12-29T13:01:45;11.70;1.00
8372;DHT22;4223;48.724;8.982;2022-12-29T13:04:42;12.00;1.00
8372;DHT22;4223;48.724;8.982;2022-12-29T13:07:22;11.90;1.00
8372;DHT22;4223;48.724;8.982;2022-12-29T13:10:03;11.70;1.00
8372;DHT22;4223;48.724;8.982;2022-12-29T13:12:39;12.00;1.00
8372;DHT22;4223;48.724;8.982;2022-12-29T13:15:21;12.40;1.00
8372;DHT22;4223;48.724;8.982;2022-12-29T13:17:54;12.30;1.00
8372;DHT22;4223;48.724;8.982;2022-12-29T13:20:29;12.00;1.00
8372;DHT22;4223;48.724;8.982;2022-12-29T13:23:04;11.70;1.00
8372;DHT22;4223;48.724;8.982;2022-12-29T13:25:39;11.50;1.00
8372;DHT22;4223;48.724;8.982;2022-12-29T13:28:13;11.30;1.80
8372;DHT22;4223;48.724;8.982;2022-12-29T13:30:49;11.10;11.10
8372;DHT22;4223;48.724;8.982;2022-12-29T13:33:24;10.90;18.80
8372;DHT22;4223;48.724;8.982;2022-12-29T13:35:57;10.90;29.30
8372;DHT22;4223;48.724;8.982;2022-12-29T13:38:32;10.90;29.80
8372;DHT22;4223;48.724;8.982;2022-12-29T13:41:04;10.90;24.50
8372;DHT22;4223;48.724;8.982;2022-12-29T13:43:35;10.80;26.20
8372;DHT22;4223;48.724;8.982;2022-12-29T13:46:06;10.90;23.40
8372;DHT22;4223;48.724;8.982;2022-12-29T13:48:37;11.00;23.70
8372;DHT22;4223;48.724;8.982;2022-12-29T13:51:08;11.00;21.30
8372;DHT22;4223;48.724;8.982;2022-12-29T13:53:41;11.00;21.70
8372;DHT22;4223;48.724;8.982;2022-12-29T13:56:15;10.80;26.00
8372;DHT22;4223;48.724;8.982;2022-12-29T13:58:49;10.80;37.90
8372;DHT22;4223;48.724;8.982;2022-12-29T14:01:20;10.80;34.10
8372;DHT22;4223;48.724;8.982;2022-12-29T14:03:50;11.00;33.00
8372;DHT22;4223;48.724;8.982;2022-12-29T14:06:23;11.00;28.60
8372;DHT22;4223;48.724;8.982;2022-12-29T14:08:53;11.20;21.10
8372;DHT22;4223;48.724;8.982;2022-12-29T14:11:23;11.20;11.30
8372;DHT22;4223;48.724;8.982;2022-12-29T14:13:53;11.10;27.30
8372;DHT22;4223;48.724;8.982;2022-12-29T14:16:27;10.90;31.80
8372;DHT22;4223;48.724;8.982;2022-12-29T14:18:56;10.70;38.20
8372;DHT22;4223;48.724;8.982;2022-12-29T14:21:30;10.60;38.10
8372;DHT22;4223;48.724;8.982;2022-12-29T14:24:32;10.60;39.30
8372;DHT22;4223;48.724;8.982;2022-12-29T14:30:47;10.90;28.80
8372;DHT22;4223;48.724;8.982;2022-12-29T14:33:15;10.70;17.10
8372;DHT22;4223;48.724;8.982;2022-12-29T14:35:44;10.70;16.70
8372;DHT22;4223;48.724;8.982;2022-12-29T14:38:17;10.60;19.30
8372;DHT22;4223;48.724;8.982;2022-12-29T14:40:45;10.50;27.80
8372;DHT22;4223;48.724;8.982;2022-12-29T14:43:19;10.50;33.80
8372;DHT22;4223;48.724;8.982;2022-12-29T14:45:54;10.40;37.70
8372;DHT22;4223;48.724;8.982;2022-12-29T14:48:35;10.40;39.80
8372;DHT22;4223;48.724;8.982;2022-12-29T14:51:20;10.30;38.30
8372;DHT22;4223;48.724;8.982;2022-12-29T14:53:51;10.30;42.60
8372;DHT22;4223;48.724;8.982;2022-12-29T14:56:23;10.30;46.40
8372;DHT22;4223;48.724;8.982;2022-12-29T14:58:52;10.20;50.50
8372;DHT22;4223;48.724;8.982;2022-12-29T15:01:26;10.10;54.40
8372;DHT22;4223;48.724;8.982;2022-12-29T15:03:55;10.10;54.80
8372;DHT22;4223;48.724;8.982;2022-12-29T15:06:25;10.00;55.30
8372;DHT22;4223;48.724;8.982;2022-12-29T15:08:58;10.00;57.30
8372;DHT22;4223;48.724;8.982;2022-12-29T15:11:41;10.00;59.20
8372;DHT22;4223;48.724;8.982;2022-12-29T15:14:27;9.90;57.00
8372;DHT22;4223;48.724;8.982;2022-12-29T15:16:59;9.90;56.80
8372;DHT22;4223;48.724;8.982;2022-12-29T15:19:26;9.90;55.20
8372;DHT22;4223;48.724;8.982;2022-12-29T15:21:54;9.90;51.30
8372;DHT22;4223;48.724;8.982;2022-12-29T15:24:22;9.90;53.10
8372;DHT22;4223;48.724;8.982;2022-12-29T15:26:51;9.90;55.20
8372;DHT22;4223;48.724;8.982;2022-12-29T15:29:35;9.90;50.70
8372;DHT22;4223;48.724;8.982;2022-12-29T15:32:17;9.90;51.60
8372;DHT22;4223;48.724;8.982;2022-12-29T15:34:46;9.90;48.90
8372;DHT22;4223;48.724;8.982;2022-12-29T15:37:21;9.90;42.70
8372;DHT22;4223;48.724;8.982;2022-12-29T15:39:49;10.00;42.60
8372;DHT22;4223;48.724;8.982;2022-12-29T15:42:37;9.90;47.30
8372;DHT22;4223;48.724;8.982;2022-12-29T15:45:08;9.90;47.70
8372;DHT22;4223;48.724;8.982;2022-12-29T15:47:38;9.90;49.70
8372;DHT22;4223;48.724;8.982;2022-12-29T15:50:14;9.90;53.20
8372;DHT22;4223;48.724;8.982;2022-12-29T15:52:42;9.90;66.10
8372;DHT22;4223;48.724;8.982;2022-12-29T15:55:19;9.80;88.20
8372;DHT22;4223;48.724;8.982;2022-12-29T15:57:47;9.60;98.40
8372;DHT22;4223;48.724;8.982;2022-12-29T16:00:24;9.40;99.90
8372;DHT22;4223;48.724;8.982;2022-12-29T16:02:54;9.20;99.90
8372;DHT22;4223;48.724;8.982;2022-12-29T16:05:21;9.00;99.90
8372;DHT22;4223;48.724;8.982;2022-12-29T16:07:52;8.90;99.90
8372;DHT22;4223;48.724;8.982;2022-12-29T16:10:30;8.70;99.90
8372;DHT22;4223;48.724;8.982;2022-12-29T16:13:04;8.60;99.90
8372;DHT22;4223;48.724;8.982;2022-12-29T16:15:32;8.50;99.90
8372;DHT22;4223;48.724;8.982;2022-12-29T16:18:00;8.50;99.90
8372;DHT22;4223;48.724;8.982;2022-12-29T16:20:36;8.40;99.90
8372;DHT22;4223;48.724;8.982;2022-12-29T16:23:04;8.30;99.90
8372;DHT22;4223;48.724;8.982;2022-12-29T16:25:33;8.30;99.90
8372;DHT22;4223;48.724;8.982;2022-12-29T16:28:15;8.30;99.90
8372;DHT22;4223;48.724;8.982;2022-12-29T16:30:42;8.30;99.90
8372;DHT22;4223;48.724;8.982;2022-12-29T16:36:40;8.30;99.90
8372;DHT22;4223;48.724;8.982;2022-12-29T16:39:25;8.20;99.90
8372;DHT22;4223;48.724;8.982;2022-12-29T16:41:53;8.20;99.90
8372;DHT22;4223;48.724;8.982;2022-12-29T16:44:22;8.20;99.90
8372;DHT22;4223;48.724;8.982;2022-12-29T16:47:04;8.20;99.90
8372;DHT22;4223;48.724;8.982;2022-12-29T16:49:34;8.20;99.90
8372;DHT22;4223;48.724;8.982;2022-12-29T16:52:11;8.10;99.90
8372;DHT22;4223;48.724;8.982;2022-12-29T16:54:40;8.10;99.90
8372;DHT22;4223;48.724;8.982;2022-12-29T16:57:08;8.10;99.90
8372;DHT22;4223;48.724;8.982;2022-12-29T16:59:36;8.10;99.90
8372;DHT22;4223;48.724;8.982;2022-12-29T17:02:07;8.10;99.90